Aviation Digital Data Service (ADDS)

Output produced by METARs form (2240 UTC 26 March 2017)
found at http://bcaws.aviationweather.gov/adds/metars/
 
METAR text: KSQL 262147Z 06004KT 10SM BKN039 16/08 A3010
Conditions at: KSQL (SAN CARLOS AIRPO, CA, US) observed 2147 UTC 26 March 2017
Temperature: 16.0°C (61°F)
Dewpoint: 8.0°C (46°F) [RH = 59%]
Pressure (altimeter): 30.10 inches Hg (1019.4 mb)
Winds: from the ENE (60 degrees) at 5 MPH (4 knots; 2.1 m/s)
Visibility: 10 or more miles (16+ km)
Ceiling: 3900 feet AGL
Clouds: broken clouds at 3900 feet AGL
Weather: no significant weather observed at this time